Flugmeteorologie

  • METAR LHSM 250000Z NIL=
  • METAR LHSM 241945Z 14002KT CAVOK 25/20 Q1014=
  • METAR LHSM 241915Z 16003KT CAVOK 26/20 Q1013=
  • METAR LHSM 241845Z 19003KT CAVOK 27/20 Q1013 NOSIG=
  • METAR LHSM 241815Z 19001KT CAVOK 28/20 Q1013 NOSIG=

  • TAF LHSM 241415Z 2415/2424 21007KT CAVOK
  • TAF LHSM 241115Z 2412/2421 23007KT CAVOK
  • TAF LHSM 240815Z 2409/2418 04004KT CAVOK
  • TAF LHSM 240515Z 2406/2415 VRB03KT CAVOK=
  • TAF LHSM 231115Z 2312/2321 24007KT CAVOK